sensor_id;sensor_type;location;lat;lon;timestamp;pressure;altitude;pressure_sealevel;temperature;humidity
27429;BME280;14881;48.092;11.574;2023-08-17T00:00:31;95611.25;;;16.46;100.00
27429;BME280;14881;48.092;11.574;2023-08-17T00:02:58;95610.78;;;16.44;100.00
27429;BME280;14881;48.092;11.574;2023-08-17T00:05:24;95613.84;;;16.42;100.00
27429;BME280;14881;48.092;11.574;2023-08-17T00:07:52;95609.50;;;16.41;100.00
27429;BME280;14881;48.092;11.574;2023-08-17T00:10:19;95605.63;;;16.42;100.00
27429;BME280;14881;48.092;11.574;2023-08-17T00:12:45;95609.81;;;16.40;100.00
27429;BME280;14881;48.092;11.574;2023-08-17T00:15:12;95610.63;;;16.40;100.00
27429;BME280;14881;48.092;11.574;2023-08-17T00:17:38;95607.69;;;16.45;100.00
27429;BME280;14881;48.092;11.574;2023-08-17T00:20:06;95603.69;;;16.34;100.00
27429;BME280;14881;48.092;11.574;2023-08-17T00:22:32;95607.25;;;16.26;100.00
27429;BME280;14881;48.092;11.574;2023-08-17T00:24:59;95606.09;;;16.18;100.00
27429;BME280;14881;48.092;11.574;2023-08-17T00:27:26;95609.66;;;16.10;100.00
27429;BME280;14881;48.092;11.574;2023-08-17T00:29:52;95608.03;;;16.18;100.00
27429;BME280;14881;48.092;11.574;2023-08-17T00:32:19;95609.50;;;16.24;100.00
27429;BME280;14881;48.092;11.574;2023-08-17T00:34:46;95608.84;;;16.18;100.00
27429;BME280;14881;48.092;11.574;2023-08-17T00:37:13;95603.06;;;16.20;100.00
27429;BME280;14881;48.092;11.574;2023-08-17T00:39:39;95605.94;;;16.15;100.00
27429;BME280;14881;48.092;11.574;2023-08-17T00:42:06;95612.41;;;16.19;100.00
27429;BME280;14881;48.092;11.574;2023-08-17T00:44:33;95611.75;;;16.05;100.00
27429;BME280;14881;48.092;11.574;2023-08-17T00:47:00;95604.16;;;16.01;100.00
27429;BME280;14881;48.092;11.574;2023-08-17T00:49:27;95611.91;;;15.99;100.00
27429;BME280;14881;48.092;11.574;2023-08-17T00:51:53;95609.16;;;15.99;100.00
27429;BME280;14881;48.092;11.574;2023-08-17T00:54:25;95591.91;;;15.99;100.00
27429;BME280;14881;48.092;11.574;2023-08-17T00:56:53;95594.34;;;15.92;100.00
27429;BME280;14881;48.092;11.574;2023-08-17T00:59:20;95590.94;;;15.95;100.00
27429;BME280;14881;48.092;11.574;2023-08-17T01:01:47;95587.25;;;15.99;100.00
27429;BME280;14881;48.092;11.574;2023-08-17T01:04:14;95593.53;;;16.00;100.00
27429;BME280;14881;48.092;11.574;2023-08-17T01:06:40;95597.41;;;15.90;100.00
27429;BME280;14881;48.092;11.574;2023-08-17T01:09:08;95597.88;;;15.84;100.00
27429;BME280;14881;48.092;11.574;2023-08-17T01:11:38;95596.56;;;15.81;100.00
27429;BME280;14881;48.092;11.574;2023-08-17T01:14:11;95592.25;;;15.89;100.00
27429;BME280;14881;48.092;11.574;2023-08-17T01:16:45;95596.72;;;15.93;100.00
27429;BME280;14881;48.092;11.574;2023-08-17T01:19:21;95598.53;;;15.98;100.00
27429;BME280;14881;48.092;11.574;2023-08-17T01:21:51;95601.44;;;15.93;100.00
27429;BME280;14881;48.092;11.574;2023-08-17T01:24:21;95604.19;;;15.93;100.00
27429;BME280;14881;48.092;11.574;2023-08-17T01:26:47;95598.03;;;15.96;100.00
27429;BME280;14881;48.092;11.574;2023-08-17T01:29:14;95601.25;;;15.89;100.00
27429;BME280;14881;48.092;11.574;2023-08-17T01:32:00;95603.97;;;15.81;100.00
27429;BME280;14881;48.092;11.574;2023-08-17T01:34:29;95605.44;;;15.78;100.00
27429;BME280;14881;48.092;11.574;2023-08-17T01:37:00;95603.00;;;15.68;100.00
27429;BME280;14881;48.092;11.574;2023-08-17T01:39:36;95609.75;;;15.62;100.00
27429;BME280;14881;48.092;11.574;2023-08-17T01:42:04;95612.78;;;15.60;100.00
27429;BME280;14881;48.092;11.574;2023-08-17T01:44:31;95604.25;;;15.62;100.00
27429;BME280;14881;48.092;11.574;2023-08-17T01:46:58;95597.34;;;15.64;100.00
27429;BME280;14881;48.092;11.574;2023-08-17T01:49:25;95599.78;;;15.66;100.00
27429;BME280;14881;48.092;11.574;2023-08-17T01:51:51;95594.28;;;15.66;100.00
27429;BME280;14881;48.092;11.574;2023-08-17T01:54:18;95593.31;;;15.62;100.00
27429;BME280;14881;48.092;11.574;2023-08-17T01:56:45;95594.59;;;15.56;100.00
27429;BME280;14881;48.092;11.574;2023-08-17T01:59:11;95595.56;;;15.60;100.00
27429;BME280;14881;48.092;11.574;2023-08-17T02:01:38;95586.88;;;15.58;100.00
27429;BME280;14881;48.092;11.574;2023-08-17T02:04:06;95591.00;;;15.47;100.00
27429;BME280;14881;48.092;11.574;2023-08-17T02:06:32;95586.31;;;15.47;100.00
27429;BME280;14881;48.092;11.574;2023-08-17T02:08:59;95576.53;;;15.55;100.00
27429;BME280;14881;48.092;11.574;2023-08-17T02:11:25;95585.25;;;15.57;100.00
27429;BME280;14881;48.092;11.574;2023-08-17T02:13:53;95577.94;;;15.44;100.00
27429;BME280;14881;48.092;11.574;2023-08-17T02:16:19;95582.78;;;15.38;100.00
27429;BME280;14881;48.092;11.574;2023-08-17T02:18:46;95576.81;;;15.36;100.00
27429;BME280;14881;48.092;11.574;2023-08-17T02:21:12;95573.88;;;15.32;100.00
27429;BME280;14881;48.092;11.574;2023-08-17T02:23:39;95565.34;;;15.34;100.00
27429;BME280;14881;48.092;11.574;2023-08-17T02:26:05;95563.75;;;15.33;100.00
27429;BME280;14881;48.092;11.574;2023-08-17T02:28:31;95566.66;;;15.37;100.00
27429;BME280;14881;48.092;11.574;2023-08-17T02:31:01;95571.16;;;15.41;100.00
27429;BME280;14881;48.092;11.574;2023-08-17T02:33:27;95564.56;;;15.42;100.00
27429;BME280;14881;48.092;11.574;2023-08-17T02:35:54;95567.78;;;15.36;100.00
27429;BME280;14881;48.092;11.574;2023-08-17T02:38:20;95569.53;;;15.31;100.00
27429;BME280;14881;48.092;11.574;2023-08-17T02:40:48;95566.34;;;15.38;100.00
27429;BME280;14881;48.092;11.574;2023-08-17T02:43:15;95574.38;;;15.35;100.00
27429;BME280;14881;48.092;11.574;2023-08-17T02:45:41;95569.22;;;15.33;100.00
27429;BME280;14881;48.092;11.574;2023-08-17T02:48:08;95573.75;;;15.38;100.00
27429;BME280;14881;48.092;11.574;2023-08-17T02:50:34;95567.97;;;15.39;100.00
27429;BME280;14881;48.092;11.574;2023-08-17T02:53:01;95572.13;;;15.37;100.00
27429;BME280;14881;48.092;11.574;2023-08-17T02:55:28;95574.56;;;15.38;100.00
27429;BME280;14881;48.092;11.574;2023-08-17T02:57:54;95570.53;;;15.44;100.00
27429;BME280;14881;48.092;11.574;2023-08-17T03:00:20;95571.81;;;15.47;100.00
27429;BME280;14881;48.092;11.574;2023-08-17T03:02:47;95575.53;;;15.51;100.00
27429;BME280;14881;48.092;11.574;2023-08-17T03:05:14;95572.69;;;15.56;100.00
27429;BME280;14881;48.092;11.574;2023-08-17T03:07:40;95563.03;;;15.58;100.00
27429;BME280;14881;48.092;11.574;2023-08-17T03:10:07;95553.38;;;15.70;100.00
27429;BME280;14881;48.092;11.574;2023-08-17T03:12:33;95561.59;;;15.78;100.00
27429;BME280;14881;48.092;11.574;2023-08-17T03:15:00;95566.13;;;15.83;100.00
27429;BME280;14881;48.092;11.574;2023-08-17T03:17:26;95566.56;;;15.76;100.00
27429;BME280;14881;48.092;11.574;2023-08-17T03:19:53;95568.50;;;15.67;100.00
27429;BME280;14881;48.092;11.574;2023-08-17T03:22:20;95587.38;;;15.69;100.00
27429;BME280;14881;48.092;11.574;2023-08-17T03:24:47;95573.34;;;15.70;100.00
27429;BME280;14881;48.092;11.574;2023-08-17T03:27:13;95573.34;;;15.70;100.00
27429;BME280;14881;48.092;11.574;2023-08-17T03:29:40;95575.94;;;15.75;100.00
27429;BME280;14881;48.092;11.574;2023-08-17T03:32:06;95572.69;;;15.64;100.00
27429;BME280;14881;48.092;11.574;2023-08-17T03:34:32;95586.38;;;15.56;100.00
27429;BME280;14881;48.092;11.574;2023-08-17T03:36:59;95582.00;;;15.55;100.00
27429;BME280;14881;48.092;11.574;2023-08-17T03:39:26;95582.94;;;15.50;100.00
27429;BME280;14881;48.092;11.574;2023-08-17T03:41:52;95581.19;;;15.54;100.00
27429;BME280;14881;48.092;11.574;2023-08-17T03:44:19;95582.00;;;15.55;100.00
27429;BME280;14881;48.092;11.574;2023-08-17T03:46:45;95583.59;;;15.47;100.00
27429;BME280;14881;48.092;11.574;2023-08-17T03:49:11;95586.13;;;15.35;100.00
27429;BME280;14881;48.092;11.574;2023-08-17T03:51:38;95580.63;;;15.26;100.00
27429;BME280;14881;48.092;11.574;2023-08-17T03:54:04;95574.66;;;15.24;100.00
27429;BME280;14881;48.092;11.574;2023-08-17T03:56:31;95593.34;;;15.22;100.00
27429;BME280;14881;48.092;11.574;2023-08-17T03:58:58;95588.19;;;15.29;100.00
27429;BME280;14881;48.092;11.574;2023-08-17T04:01:25;95579.00;;;15.25;100.00
27429;BME280;14881;48.092;11.574;2023-08-17T04:03:51;95583.22;;;15.31;100.00
27429;BME280;14881;48.092;11.574;2023-08-17T04:06:17;95589.50;;;15.23;100.00
27429;BME280;14881;48.092;11.574;2023-08-17T04:08:44;95595.84;;;15.10;100.00
27429;BME280;14881;48.092;11.574;2023-08-17T04:11:11;95596.66;;;15.11;100.00
27429;BME280;14881;48.092;11.574;2023-08-17T04:13:38;95594.75;;;15.11;100.00
27429;BME280;14881;48.092;11.574;2023-08-17T04:16:05;95594.09;;;15.14;100.00
27429;BME280;14881;48.092;11.574;2023-08-17T04:18:31;95595.53;;;15.03;100.00
27429;BME280;14881;48.092;11.574;2023-08-17T04:20:58;95598.88;;;15.00;100.00
27429;BME280;14881;48.092;11.574;2023-08-17T04:23:24;95601.44;;;14.96;100.00
27429;BME280;14881;48.092;11.574;2023-08-17T04:25:50;95612.00;;;14.89;100.00
27429;BME280;14881;48.092;11.574;2023-08-17T04:28:17;95615.91;;;14.88;100.00
27429;BME280;14881;48.092;11.574;2023-08-17T04:30:44;95618.28;;;14.90;100.00
27429;BME280;14881;48.092;11.574;2023-08-17T04:33:10;95624.94;;;14.97;100.00
27429;BME280;14881;48.092;11.574;2023-08-17T04:35:37;95612.59;;;15.09;100.00
27429;BME280;14881;48.092;11.574;2023-08-17T04:38:03;95619.41;;;15.20;100.00
27429;BME280;14881;48.092;11.574;2023-08-17T04:40:30;95622.34;;;15.23;100.00
27429;BME280;14881;48.092;11.574;2023-08-17T04:42:57;95616.53;;;15.25;100.00
27429;BME280;14881;48.092;11.574;2023-08-17T04:45:23;95616.88;;;15.23;100.00
27429;BME280;14881;48.092;11.574;2023-08-17T04:47:50;95608.81;;;15.27;100.00
27429;BME280;14881;48.092;11.574;2023-08-17T04:50:17;95617.19;;;15.22;100.00
27429;BME280;14881;48.092;11.574;2023-08-17T04:52:44;95621.84;;;15.21;100.00
27429;BME280;14881;48.092;11.574;2023-08-17T04:55:10;95619.72;;;15.18;100.00
27429;BME280;14881;48.092;11.574;2023-08-17T04:57:37;95623.91;;;15.16;100.00
27429;BME280;14881;48.092;11.574;2023-08-17T05:00:05;95620.22;;;15.20;100.00
27429;BME280;14881;48.092;11.574;2023-08-17T05:02:34;95622.66;;;15.30;100.00
27429;BME280;14881;48.092;11.574;2023-08-17T05:05:03;95614.16;;;15.32;100.00
27429;BME280;14881;48.092;11.574;2023-08-17T05:07:30;95618.19;;;15.35;100.00
27429;BME280;14881;48.092;11.574;2023-08-17T05:09:56;95622.03;;;15.33;100.00
27429;BME280;14881;48.092;11.574;2023-08-17T05:12:22;95632.38;;;15.37;100.00
27429;BME280;14881;48.092;11.574;2023-08-17T05:14:49;95634.81;;;15.47;100.00
27429;BME280;14881;48.092;11.574;2023-08-17T05:17:15;95629.91;;;15.57;100.00
27429;BME280;14881;48.092;11.574;2023-08-17T05:19:41;95622.31;;;15.63;100.00
27429;BME280;14881;48.092;11.574;2023-08-17T05:22:12;95625.72;;;15.69;100.00
27429;BME280;14881;48.092;11.574;2023-08-17T05:24:38;95626.53;;;15.78;100.00
27429;BME280;14881;48.092;11.574;2023-08-17T05:27:05;95631.72;;;15.88;100.00
27429;BME280;14881;48.092;11.574;2023-08-17T05:29:31;95626.91;;;16.02;100.00
27429;BME280;14881;48.092;11.574;2023-08-17T05:31:58;95627.38;;;16.13;100.00
27429;BME280;14881;48.092;11.574;2023-08-17T05:34:24;95628.69;;;16.32;100.00
27429;BME280;14881;48.092;11.574;2023-08-17T05:36:51;95633.69;;;16.56;100.00
27429;BME280;14881;48.092;11.574;2023-08-17T05:39:18;95639.47;;;16.81;100.00
27429;BME280;14881;48.092;11.574;2023-08-17T05:41:44;95626.50;;;17.07;100.00
27429;BME280;14881;48.092;11.574;2023-08-17T05:44:11;95631.38;;;17.39;100.00
27429;BME280;14881;48.092;11.574;2023-08-17T05:46:40;95617.22;;;17.67;100.00
27429;BME280;14881;48.092;11.574;2023-08-17T05:49:06;95623.56;;;17.88;100.00
27429;BME280;14881;48.092;11.574;2023-08-17T05:51:32;95625.72;;;18.03;100.00
27429;BME280;14881;48.092;11.574;2023-08-17T05:53:59;95616.09;;;18.18;100.00
27429;BME280;14881;48.092;11.574;2023-08-17T05:56:26;95618.91;;;18.30;100.00
27429;BME280;14881;48.092;11.574;2023-08-17T05:58:53;95619.28;;;18.41;100.00
27429;BME280;14881;48.092;11.574;2023-08-17T06:01:20;95621.75;;;18.55;100.00
27429;BME280;14881;48.092;11.574;2023-08-17T06:03:46;95616.56;;;18.62;100.00
27429;BME280;14881;48.092;11.574;2023-08-17T06:06:13;95610.69;;;18.84;100.00
27429;BME280;14881;48.092;11.574;2023-08-17T06:08:40;95606.59;;;19.02;100.00
27429;BME280;14881;48.092;11.574;2023-08-17T06:11:06;95602.94;;;19.23;100.00
27429;BME280;14881;48.092;11.574;2023-08-17T06:13:33;95596.88;;;19.41;100.00
27429;BME280;14881;48.092;11.574;2023-08-17T06:16:01;95595.31;;;19.53;100.00
27429;BME280;14881;48.092;11.574;2023-08-17T06:18:29;95597.28;;;19.64;100.00
27429;BME280;14881;48.092;11.574;2023-08-17T06:20:55;95596.03;;;19.74;100.00
27429;BME280;14881;48.092;11.574;2023-08-17T06:23:21;95593.59;;;19.85;100.00
27429;BME280;14881;48.092;11.574;2023-08-17T06:25:48;95594.25;;;19.94;100.00
27429;BME280;14881;48.092;11.574;2023-08-17T06:28:14;95600.09;;;20.04;100.00
27429;BME280;14881;48.092;11.574;2023-08-17T06:30:41;95593.19;;;20.10;100.00
27429;BME280;14881;48.092;11.574;2023-08-17T06:33:08;95593.63;;;20.25;100.00
27429;BME280;14881;48.092;11.574;2023-08-17T06:35:34;95598.19;;;20.33;100.00
27429;BME280;14881;48.092;11.574;2023-08-17T06:38:00;95590.25;;;20.43;100.00
27429;BME280;14881;48.092;11.574;2023-08-17T06:40:27;95588.84;;;20.49;100.00
27429;BME280;14881;48.092;11.574;2023-08-17T06:42:53;95599.66;;;20.55;100.00
27429;BME280;14881;48.092;11.574;2023-08-17T06:45:20;95592.13;;;20.67;100.00
27429;BME280;14881;48.092;11.574;2023-08-17T06:47:48;95596.25;;;20.73;100.00
27429;BME280;14881;48.092;11.574;2023-08-17T06:50:15;95594.91;;;20.83;100.00
27429;BME280;14881;48.092;11.574;2023-08-17T06:52:41;95594.22;;;20.86;100.00
27429;BME280;14881;48.092;11.574;2023-08-17T06:55:08;95586.13;;;20.93;100.00
27429;BME280;14881;48.092;11.574;2023-08-17T06:57:35;95587.75;;;21.10;100.00
27429;BME280;14881;48.092;11.574;2023-08-17T07:00:02;95592.19;;;21.27;100.00
27429;BME280;14881;48.092;11.574;2023-08-17T07:02:31;95591.53;;;21.33;100.00
27429;BME280;14881;48.092;11.574;2023-08-17T07:05:18;95591.72;;;21.40;100.00
27429;BME280;14881;48.092;11.574;2023-08-17T07:07:44;95599.94;;;21.37;100.00
27429;BME280;14881;48.092;11.574;2023-08-17T07:10:11;95596.44;;;21.56;100.00
27429;BME280;14881;48.092;11.574;2023-08-17T07:12:37;95589.28;;;21.70;100.00
27429;BME280;14881;48.092;11.574;2023-08-17T07:15:09;95587.75;;;21.88;100.00
27429;BME280;14881;48.092;11.574;2023-08-17T07:17:36;95584.88;;;22.01;100.00
27429;BME280;14881;48.092;11.574;2023-08-17T07:20:03;95589.06;;;22.10;100.00
27429;BME280;14881;48.092;11.574;2023-08-17T07:22:42;95583.13;;;22.28;100.00
27429;BME280;14881;48.092;11.574;2023-08-17T07:25:09;95578.69;;;22.42;100.00
27429;BME280;14881;48.092;11.574;2023-08-17T07:27:36;95588.59;;;22.43;100.00
27429;BME280;14881;48.092;11.574;2023-08-17T07:30:02;95586.13;;;22.57;100.00
27429;BME280;14881;48.092;11.574;2023-08-17T07:32:29;95593.56;;;22.53;100.00
27429;BME280;14881;48.092;11.574;2023-08-17T07:34:55;95592.47;;;22.58;100.00
27429;BME280;14881;48.092;11.574;2023-08-17T07:37:27;95585.44;;;22.80;100.00
27429;BME280;14881;48.092;11.574;2023-08-17T07:39:59;95591.81;;;23.03;100.00
27429;BME280;14881;48.092;11.574;2023-08-17T07:42:26;95583.41;;;23.19;100.00
27429;BME280;14881;48.092;11.574;2023-08-17T07:44:56;95584.47;;;23.34;100.00
27429;BME280;14881;48.092;11.574;2023-08-17T07:47:25;95577.41;;;23.40;100.00
27429;BME280;14881;48.092;11.574;2023-08-17T07:49:53;95576.13;;;23.56;100.00
27429;BME280;14881;48.092;11.574;2023-08-17T07:52:20;95587.91;;;23.73;100.00
27429;BME280;14881;48.092;11.574;2023-08-17T07:54:46;95570.63;;;23.83;100.00
27429;BME280;14881;48.092;11.574;2023-08-17T07:57:13;95581.13;;;23.97;100.00
27429;BME280;14881;48.092;11.574;2023-08-17T07:59:40;95570.66;;;24.13;100.00
27429;BME280;14881;48.092;11.574;2023-08-17T08:02:06;95574.00;;;24.22;100.00
27429;BME280;14881;48.092;11.574;2023-08-17T08:04:32;95574.63;;;24.38;100.00
27429;BME280;14881;48.092;11.574;2023-08-17T08:06:59;95568.72;;;24.43;100.00
27429;BME280;14881;48.092;11.574;2023-08-17T08:09:25;95560.91;;;24.52;100.00
27429;BME280;14881;48.092;11.574;2023-08-17T08:11:51;95568.94;;;24.61;100.00
27429;BME280;14881;48.092;11.574;2023-08-17T08:14:18;95564.78;;;24.74;100.00
27429;BME280;14881;48.092;11.574;2023-08-17T08:16:45;95561.31;;;24.84;100.00
27429;BME280;14881;48.092;11.574;2023-08-17T08:19:12;95565.88;;;25.00;100.00
27429;BME280;14881;48.092;11.574;2023-08-17T08:21:39;95561.16;;;25.04;100.00
27429;BME280;14881;48.092;11.574;2023-08-17T08:24:06;95554.16;;;25.20;100.00
27429;BME280;14881;48.092;11.574;2023-08-17T08:26:47;95553.03;;;25.28;100.00
27429;BME280;14881;48.092;11.574;2023-08-17T08:29:14;95556.66;;;25.32;100.00
27429;BME280;14881;48.092;11.574;2023-08-17T08:31:41;95556.00;;;25.50;100.00
27429;BME280;14881;48.092;11.574;2023-08-17T08:34:07;95557.75;;;25.65;100.00
27429;BME280;14881;48.092;11.574;2023-08-17T08:36:34;95553.03;;;25.69;100.00
27429;BME280;14881;48.092;11.574;2023-08-17T08:39:00;95551.03;;;25.70;100.00
27429;BME280;14881;48.092;11.574;2023-08-17T08:41:26;95553.56;;;25.85;100.00
27429;BME280;14881;48.092;11.574;2023-08-17T08:43:54;95556.41;;;25.92;100.00
27429;BME280;14881;48.092;11.574;2023-08-17T08:46:23;95552.53;;;26.11;100.00
27429;BME280;14881;48.092;11.574;2023-08-17T08:48:54;95551.06;;;26.28;100.00
27429;BME280;14881;48.092;11.574;2023-08-17T08:51:27;95557.88;;;26.38;100.00
27429;BME280;14881;48.092;11.574;2023-08-17T08:54:00;95557.94;;;26.52;100.00
27429;BME280;14881;48.092;11.574;2023-08-17T08:56:30;95552.84;;;26.64;100.00
27429;BME280;14881;48.092;11.574;2023-08-17T08:58:57;95550.81;;;26.58;100.00
27429;BME280;14881;48.092;11.574;2023-08-17T09:01:25;95544.16;;;26.84;100.00
27429;BME280;14881;48.092;11.574;2023-08-17T09:03:53;95548.63;;;26.99;100.00
27429;BME280;14881;48.092;11.574;2023-08-17T09:06:23;95541.78;;;26.93;100.00
27429;BME280;14881;48.092;11.574;2023-08-17T09:08:52;95540.63;;;27.04;100.00
27429;BME280;14881;48.092;11.574;2023-08-17T09:11:18;95535.09;;;27.19;100.00
27429;BME280;14881;48.092;11.574;2023-08-17T09:13:44;95536.31;;;27.32;100.00
27429;BME280;14881;48.092;11.574;2023-08-17T09:16:11;95527.16;;;27.49;100.00
27429;BME280;14881;48.092;11.574;2023-08-17T09:18:37;95532.75;;;27.78;100.00
27429;BME280;14881;48.092;11.574;2023-08-17T09:21:05;95527.94;;;27.89;100.00
27429;BME280;14881;48.092;11.574;2023-08-17T09:23:32;95530.34;;;27.90;100.00
27429;BME280;14881;48.092;11.574;2023-08-17T09:26:08;95517.53;;;28.14;100.00
27429;BME280;14881;48.092;11.574;2023-08-17T09:28:38;95519.13;;;28.29;100.00
27429;BME280;14881;48.092;11.574;2023-08-17T09:31:05;95518.28;;;28.50;100.00
27429;BME280;14881;48.092;11.574;2023-08-17T09:33:33;95513.81;;;28.63;100.00
27429;BME280;14881;48.092;11.574;2023-08-17T09:36:00;95526.97;;;28.73;100.00
27429;BME280;14881;48.092;11.574;2023-08-17T09:38:27;95517.78;;;28.69;100.00
27429;BME280;14881;48.092;11.574;2023-08-17T09:40:54;95516.59;;;28.70;100.00
27429;BME280;14881;48.092;11.574;2023-08-17T09:43:21;95515.34;;;28.75;100.00
27429;BME280;14881;48.092;11.574;2023-08-17T09:45:48;95511.34;;;28.83;100.00
27429;BME280;14881;48.092;11.574;2023-08-17T09:48:16;95515.63;;;29.05;100.00
27429;BME280;14881;48.092;11.574;2023-08-17T09:50:44;95505.66;;;29.04;100.00
27429;BME280;14881;48.092;11.574;2023-08-17T09:53:12;95510.31;;;29.25;100.00
27429;BME280;14881;48.092;11.574;2023-08-17T09:55:42;95505.44;;;29.40;100.00
27429;BME280;14881;48.092;11.574;2023-08-17T09:58:09;95501.59;;;29.68;100.00
27429;BME280;14881;48.092;11.574;2023-08-17T10:00:36;95504.75;;;29.73;100.00
27429;BME280;14881;48.092;11.574;2023-08-17T10:03:04;95501.78;;;29.91;100.00
27429;BME280;14881;48.092;11.574;2023-08-17T10:05:38;95505.91;;;30.21;100.00
27429;BME280;14881;48.092;11.574;2023-08-17T10:08:07;95502.09;;;30.41;100.00
27429;BME280;14881;48.092;11.574;2023-08-17T10:10:35;95510.28;;;30.25;100.00
27429;BME280;14881;48.092;11.574;2023-08-17T10:13:08;95499.00;;;30.66;100.00
27429;BME280;14881;48.092;11.574;2023-08-17T10:15:38;95499.50;;;30.88;100.00
27429;BME280;14881;48.092;11.574;2023-08-17T10:18:13;95494.50;;;31.03;100.00
27429;BME280;14881;48.092;11.574;2023-08-17T10:20:44;95496.19;;;31.27;100.00
27429;BME280;14881;48.092;11.574;2023-08-17T10:23:15;95496.72;;;31.45;100.00
27429;BME280;14881;48.092;11.574;2023-08-17T10:25:43;95500.22;;;31.26;100.00
27429;BME280;14881;48.092;11.574;2023-08-17T10:28:11;95500.97;;;31.30;100.00
27429;BME280;14881;48.092;11.574;2023-08-17T10:30:38;95492.44;;;31.10;100.00
27429;BME280;14881;48.092;11.574;2023-08-17T10:33:05;95487.88;;;30.90;100.00
27429;BME280;14881;48.092;11.574;2023-08-17T10:35:32;95496.09;;;30.73;100.00
27429;BME280;14881;48.092;11.574;2023-08-17T10:37:59;95501.88;;;30.63;100.00
27429;BME280;14881;48.092;11.574;2023-08-17T10:40:26;95489.53;;;30.84;100.00
27429;BME280;14881;48.092;11.574;2023-08-17T10:42:54;95488.41;;;31.08;100.00
27429;BME280;14881;48.092;11.574;2023-08-17T10:45:29;95490.47;;;31.34;100.00
27429;BME280;14881;48.092;11.574;2023-08-17T10:48:24;95492.25;;;31.21;100.00
27429;BME280;14881;48.092;11.574;2023-08-17T10:51:02;95499.97;;;30.83;98.75
27429;BME280;14881;48.092;11.574;2023-08-17T10:53:34;95496.06;;;30.43;100.00
27429;BME280;14881;48.092;11.574;2023-08-17T10:56:07;95498.38;;;30.48;100.00
27429;BME280;14881;48.092;11.574;2023-08-17T10:58:34;95489.72;;;31.00;100.00
27429;BME280;14881;48.092;11.574;2023-08-17T11:01:02;95492.72;;;31.43;100.00
27429;BME280;14881;48.092;11.574;2023-08-17T11:03:28;95489.56;;;31.14;99.30
27429;BME280;14881;48.092;11.574;2023-08-17T11:06:14;95483.25;;;31.03;99.31
27429;BME280;14881;48.092;11.574;2023-08-17T11:08:53;95488.34;;;30.85;100.00
27429;BME280;14881;48.092;11.574;2023-08-17T11:11:21;95496.25;;;30.63;100.00
27429;BME280;14881;48.092;11.574;2023-08-17T11:13:48;95489.09;;;30.58;100.00
27429;BME280;14881;48.092;11.574;2023-08-17T11:16:17;95494.09;;;30.74;100.00
27429;BME280;14881;48.092;11.574;2023-08-17T11:18:45;95490.25;;;31.22;100.00
27429;BME280;14881;48.092;11.574;2023-08-17T11:21:12;95478.63;;;31.20;100.00
27429;BME280;14881;48.092;11.574;2023-08-17T11:23:44;95480.34;;;31.64;100.00
27429;BME280;14881;48.092;11.574;2023-08-17T11:26:11;95484.66;;;31.72;96.68
27429;BME280;14881;48.092;11.574;2023-08-17T11:28:37;95470.97;;;31.97;96.46
27429;BME280;14881;48.092;11.574;2023-08-17T11:31:08;95474.09;;;31.79;87.44
27429;BME280;14881;48.092;11.574;2023-08-17T11:33:36;95471.91;;;32.34;93.16
27429;BME280;14881;48.092;11.574;2023-08-17T11:36:04;95467.84;;;32.94;94.50
27429;BME280;14881;48.092;11.574;2023-08-17T11:38:32;95467.44;;;33.12;89.23
27429;BME280;14881;48.092;11.574;2023-08-17T11:40:59;95458.97;;;33.12;88.52
27429;BME280;14881;48.092;11.574;2023-08-17T11:43:27;95457.72;;;32.97;87.97
27429;BME280;14881;48.092;11.574;2023-08-17T11:45:54;95455.81;;;32.74;85.18
27429;BME280;14881;48.092;11.574;2023-08-17T11:48:21;95457.19;;;32.85;85.17
27429;BME280;14881;48.092;11.574;2023-08-17T11:50:48;95446.53;;;33.29;85.04
27429;BME280;14881;48.092;11.574;2023-08-17T11:53:15;95445.41;;;33.59;84.56
27429;BME280;14881;48.092;11.574;2023-08-17T11:55:41;95436.97;;;33.59;75.90
27429;BME280;14881;48.092;11.574;2023-08-17T11:58:08;95446.72;;;33.38;75.68
27429;BME280;14881;48.092;11.574;2023-08-17T12:00:39;95438.72;;;33.53;81.67
27429;BME280;14881;48.092;11.574;2023-08-17T12:03:06;95432.19;;;33.56;85.71
27429;BME280;14881;48.092;11.574;2023-08-17T12:05:33;95442.28;;;33.21;86.10
27429;BME280;14881;48.092;11.574;2023-08-17T12:08:00;95446.69;;;33.22;88.33
27429;BME280;14881;48.092;11.574;2023-08-17T12:10:27;95435.28;;;33.09;91.12
27429;BME280;14881;48.092;11.574;2023-08-17T12:12:57;95432.25;;;33.20;90.33
27429;BME280;14881;48.092;11.574;2023-08-17T12:15:29;95432.47;;;33.09;87.92
27429;BME280;14881;48.092;11.574;2023-08-17T12:17:58;95438.84;;;32.77;90.73
27429;BME280;14881;48.092;11.574;2023-08-17T12:20:25;95428.53;;;33.07;95.69
27429;BME280;14881;48.092;11.574;2023-08-17T12:22:52;95435.56;;;32.99;100.00
27429;BME280;14881;48.092;11.574;2023-08-17T12:25:21;95427.31;;;32.52;99.92
27429;BME280;14881;48.092;11.574;2023-08-17T12:27:48;95412.75;;;32.37;100.00
27429;BME280;14881;48.092;11.574;2023-08-17T12:30:27;95405.38;;;32.24;100.00
27429;BME280;14881;48.092;11.574;2023-08-17T12:32:53;95416.94;;;31.63;100.00
27429;BME280;14881;48.092;11.574;2023-08-17T12:35:23;95402.41;;;31.44;100.00
27429;BME280;14881;48.092;11.574;2023-08-17T12:37:50;95406.97;;;31.35;100.00
27429;BME280;14881;48.092;11.574;2023-08-17T12:40:17;95403.00;;;31.05;100.00
27429;BME280;14881;48.092;11.574;2023-08-17T12:42:44;95401.47;;;31.01;100.00